Time;durP1;ratioP1;P1;durP2;ratioP2;P2;SDS_P1;SDS_P2;PMS_P1;PMS_P2;Temp;Humidity;BMP_temperature;BMP_pressure;BME280_temperature;BME280_humidity;BME280_pressure;Samples;Min_cycle;Max_cycle;Signal;HPM_P1;HPM_P2
2023/11/15 00:01:27;;;;;;;;;;;;;;;25.65;44.33;94148.31;5028480;28;7219;-56
2023/11/15 00:03:54;;;;;;;;;;;;;;;25.65;43.60;94156.56;5030268;28;7676;-55
2023/11/15 00:06:20;;;;;;;;;;;;;;;25.64;43.79;94161.34;5050073;28;7229;-55
2023/11/15 00:08:48;;;;;;;;;;;;;;;25.61;44.32;94159.63;5035991;28;9046;-56
2023/11/15 00:11:18;;;;;;;;;;;;;;;25.64;44.11;94157.84;5039093;28;8780;-56
2023/11/15 00:13:50;;;;;;;;;;;;;;;25.63;43.43;94157.09;5047674;28;7188;-55
2023/11/15 00:16:18;;;;;;;;;;;;;;;25.65;44.47;94156.56;5034955;28;7250;-55
2023/11/15 00:19:14;;;;;;;;;;;;;;;25.66;43.74;94161.59;5025714;28;7065;-55
2023/11/15 00:22:08;;;;;;;;;;;;;;;25.64;43.81;94147.59;5042029;28;7219;-57
2023/11/15 00:24:55;;;;;;;;;;;;;;;25.61;44.23;94140.34;5037572;28;7224;-57
2023/11/15 00:27:54;;;;;;;;;;;;;;;25.63;44.63;94145.31;5032763;28;8885;-57
2023/11/15 00:30:23;;;;;;;;;;;;;;;25.61;44.06;94156.88;5024710;28;7224;-57
2023/11/15 00:32:51;;;;;;;;;;;;;;;25.60;43.99;94152.59;5037215;28;6987;-57
2023/11/15 00:35:17;;;;;;;;;;;;;;;25.61;43.80;94147.84;5044424;28;7212;-57
2023/11/15 00:37:47;;;;;;;;;;;;;;;25.59;44.36;94145.63;5037060;28;6983;-57
2023/11/15 00:40:16;;;;;;;;;;;;;;;25.59;44.58;94145.63;5052112;28;7281;-57
2023/11/15 00:42:43;;;;;;;;;;;;;;;25.60;44.47;94154.63;5036038;28;7307;-57
2023/11/15 00:45:12;;;;;;;;;;;;;;;25.59;43.83;94156.63;5043337;28;7341;-57
2023/11/15 00:47:39;;;;;;;;;;;;;;;25.58;44.48;94163.41;5048713;28;9529;-57
2023/11/15 00:50:24;;;;;;;;;;;;;;;25.57;44.11;94153.66;5046983;28;6990;-57
2023/11/15 00:52:58;;;;;;;;;;;;;;;25.61;44.30;94167.88;5055819;28;8834;-58
2023/11/15 00:55:24;;;;;;;;;;;;;;;25.62;43.94;94165.88;5043704;28;7116;-57
2023/11/15 00:58:17;;;;;;;;;;;;;;;25.59;44.59;94169.66;5045132;28;8623;-58
2023/11/15 01:01:20;;;;;;;;;;;;;;;25.60;44.32;94185.66;5035411;28;9398;-58
2023/11/15 01:03:55;;;;;;;;;;;;;;;25.56;44.15;94174.19;4954057;28;7595;-57
2023/11/15 01:06:27;;;;;;;;;;;;;;;25.58;44.28;94185.44;4958030;28;9263;-57
2023/11/15 01:09:08;;;;;;;;;;;;;;;25.57;44.30;94205.97;4975063;28;8748;-58
2023/11/15 01:11:52;;;;;;;;;;;;;;;25.56;43.71;94218.25;4964943;28;8947;-57
2023/11/15 01:14:28;;;;;;;;;;;;;;;25.57;43.54;94214.25;4963331;28;7233;-58
2023/11/15 01:17:43;;;;;;;;;;;;;;;25.59;44.33;94211.72;4960636;28;7192;-57
2023/11/15 01:24:03;;;;;;;;;;;;;;;25.58;44.13;94199.19;4904687;29;7022;-58
2023/11/15 01:26:31;;;;;;;;;;;;;;;25.59;43.83;94208.22;4912617;29;7072;-57
2023/11/15 01:28:57;;;;;;;;;;;;;;;25.57;44.25;94219.00;4887076;29;7357;-57
2023/11/15 01:31:40;;;;;;;;;;;;;;;25.55;44.69;94218.78;4917772;29;7180;-57
2023/11/15 01:34:06;;;;;;;;;;;;;;;25.55;43.83;94241.56;4894406;29;9114;-64
2023/11/15 01:36:34;;;;;;;;;;;;;;;25.54;44.11;94220.03;4899281;29;7290;-64
2023/11/15 01:39:16;;;;;;;;;;;;;;;25.50;43.64;94212.06;4975073;28;8676;-64
2023/11/15 01:41:49;;;;;;;;;;;;;;;25.54;43.83;94220.03;4988353;28;6995;-64
2023/11/15 01:44:20;;;;;;;;;;;;;;;25.51;43.91;94205.28;4988654;28;7245;-64
2023/11/15 01:46:49;;;;;;;;;;;;;;;25.48;45.04;94206.31;4971958;28;7204;-64
2023/11/15 01:49:20;;;;;;;;;;;;;;;25.50;43.89;94214.06;4972294;28;7325;-64
2023/11/15 01:51:50;;;;;;;;;;;;;;;25.50;43.96;94212.06;4974085;28;6975;-64
2023/11/15 01:54:20;;;;;;;;;;;;;;;25.52;44.51;94206.78;4969340;28;9091;-64
2023/11/15 01:56:56;;;;;;;;;;;;;;;25.52;44.46;94206.78;5025233;28;6979;-64
2023/11/15 01:59:29;;;;;;;;;;;;;;;25.52;43.94;94212.28;5046699;28;7069;-64
2023/11/15 02:02:26;;;;;;;;;;;;;;;25.54;44.11;94218.03;5054559;28;7251;-64
2023/11/15 02:05:29;;;;;;;;;;;;;;;25.55;44.05;94216.03;5009222;28;7404;-64
2023/11/15 02:08:10;;;;;;;;;;;;;;;25.50;44.70;94203.78;4959435;28;7084;-63
2023/11/15 02:10:56;;;;;;;;;;;;;;;25.51;44.92;94201.78;4956365;28;7302;-64
2023/11/15 02:13:59;;;;;;;;;;;;;;;25.49;44.79;94201.56;4941255;28;7079;-64
2023/11/15 02:16:34;;;;;;;;;;;;;;;25.47;44.54;94212.34;4948077;28;6994;-64
2023/11/15 02:19:01;;;;;;;;;;;;;;;25.45;44.82;94229.34;4948068;28;7226;-64
2023/11/15 02:21:41;;;;;;;;;;;;;;;25.47;44.14;94209.59;4940090;28;7222;-64
2023/11/15 02:24:11;;;;;;;;;;;;;;;25.45;43.91;94212.13;4939893;28;7872;-63
2023/11/15 02:26:53;;;;;;;;;;;;;;;25.44;44.16;94211.34;4953098;28;7581;-64
2023/11/15 02:29:21;;;;;;;;;;;;;;;25.45;44.22;94212.84;4946452;28;8908;-64
2023/11/15 02:31:57;;;;;;;;;;;;;;;25.43;44.36;94231.88;4946577;28;7403;-64
2023/11/15 02:34:25;;;;;;;;;;;;;;;25.39;45.23;94225.88;4938578;28;7297;-64
2023/11/15 02:36:51;;;;;;;;;;;;;;;25.40;44.99;94230.88;4943056;28;7231;-64
2023/11/15 02:39:17;;;;;;;;;;;;;;;25.43;43.64;94229.13;4953776;28;7038;-64
2023/11/15 02:41:43;;;;;;;;;;;;;;;25.42;44.32;94233.88;4989622;28;7422;-64
2023/11/15 02:44:15;;;;;;;;;;;;;;;25.38;44.27;94238.91;5054666;28;9102;-65
2023/11/15 02:46:50;;;;;;;;;;;;;;;25.39;44.80;94237.66;5055184;28;8962;-64
2023/11/15 02:49:16;;;;;;;;;;;;;;;25.43;44.85;94242.91;5045055;28;9336;-64
2023/11/15 02:51:49;;;;;;;;;;;;;;;25.39;44.93;94254.16;5040459;28;9197;-63
2023/11/15 02:54:25;;;;;;;;;;;;;;;25.37;44.92;94250.44;5038830;28;7245;-64
2023/11/15 02:57:22;;;;;;;;;;;;;;;25.35;44.64;94264.72;5053379;28;7286;-63
2023/11/15 03:00:06;;;;;;;;;;;;;;;25.36;43.71;94259.94;4991325;28;7321;-64
2023/11/15 03:02:33;;;;;;;;;;;;;;;25.37;44.14;94267.69;4999944;28;7604;-63
2023/11/15 03:05:00;;;;;;;;;;;;;;;25.42;44.36;94271.69;4968229;28;7493;-64
2023/11/15 03:07:32;;;;;;;;;;;;;;;25.40;44.36;94266.66;4974289;28;7163;-63
2023/11/15 03:10:37;;;;;;;;;;;;;;;25.41;43.80;94267.41;4970366;28;7214;-64
2023/11/15 03:13:28;;;;;;;;;;;;;;;25.37;44.22;94277.97;4990016;28;7105;-63
2023/11/15 03:16:44;;;;;;;;;;;;;;;25.35;44.59;94272.22;4976429;28;7065;-64
2023/11/15 03:19:21;;;;;;;;;;;;;;;25.36;44.21;94276.47;4914909;28;7019;-64
2023/11/15 03:21:57;;;;;;;;;;;;;;;25.39;43.62;94278.19;4939847;28;7136;-63
2023/11/15 03:24:47;;;;;;;;;;;;;;;25.37;43.88;94288.97;4935530;28;7206;-64
2023/11/15 03:27:22;;;;;;;;;;;;;;;25.35;44.17;94280.47;4928255;28;8723;-63
2023/11/15 03:30:21;;;;;;;;;;;;;;;25.33;45.02;94294.75;4929847;28;7232;-63
2023/11/15 03:33:07;;;;;;;;;;;;;;;25.31;44.65;94297.28;4917359;28;8957;-63
2023/11/15 03:35:50;;;;;;;;;;;;;;;25.31;44.65;94286.28;4934413;28;9540;-63
2023/11/15 03:38:26;;;;;;;;;;;;;;;25.29;44.68;94283.25;4997651;28;9152;-64
2023/11/15 03:41:05;;;;;;;;;;;;;;;25.31;45.15;94291.03;4974679;28;9024;-63
2023/11/15 03:43:43;;;;;;;;;;;;;;;25.31;44.84;94286.28;4970262;28;7238;-63
2023/11/15 03:46:42;;;;;;;;;;;;;;;25.32;44.09;94293.25;4977334;28;7309;-63
2023/11/15 03:49:37;;;;;;;;;;;;;;;25.33;43.84;94299.53;4952250;28;9035;-64
2023/11/15 03:52:29;;;;;;;;;;;;;;;25.33;44.74;94307.78;4896048;29;7249;-61
2023/11/15 03:55:04;;;;;;;;;;;;;;;25.29;44.81;94315.56;4899469;29;8185;-61
2023/11/15 03:57:55;;;;;;;;;;;;;;;25.29;44.57;94313.53;4934752;29;7645;-61
2023/11/15 04:00:31;;;;;;;;;;;;;;;25.28;44.71;94314.81;4935116;29;9385;-61
2023/11/15 04:03:16;;;;;;;;;;;;;;;25.27;44.54;94318.09;4931372;29;7138;-61
2023/11/15 04:05:42;;;;;;;;;;;;;;;25.30;44.20;94317.03;4933637;29;6982;-61
2023/11/15 04:08:17;;;;;;;;;;;;;;;25.29;44.01;94315.56;4934513;29;9093;-61
2023/11/15 04:10:43;;;;;;;;;;;;;;;25.28;44.44;94319.56;4935441;28;7254;-61
2023/11/15 04:13:10;;;;;;;;;;;;;;;25.29;44.82;94324.56;4928315;29;8898;-61
2023/11/15 04:15:41;;;;;;;;;;;;;;;25.29;43.72;94321.81;4926482;28;7433;-61
2023/11/15 04:18:07;;;;;;;;;;;;;;;25.29;44.03;94323.81;4928493;29;7243;-62
2023/11/15 04:20:33;;;;;;;;;;;;;;;25.31;44.25;94327.56;4911743;29;7261;-61
2023/11/15 04:23:17;;;;;;;;;;;;;;;25.32;44.31;94331.03;4929589;29;7580;-61
2023/11/15 04:26:07;;;;;;;;;;;;;;;25.31;43.80;94335.06;4965418;28;7472;-61
2023/11/15 04:28:39;;;;;;;;;;;;;;;25.29;43.89;94337.59;4997957;28;9280;-61
2023/11/15 04:31:10;;;;;;;;;;;;;;;25.30;44.56;94347.31;5035774;28;7267;-61
2023/11/15 04:33:37;;;;;;;;;;;;;;;25.27;44.03;94340.09;5037074;28;9108;-61
2023/11/15 04:36:03;;;;;;;;;;;;;;;25.31;44.72;94346.09;5037944;28;8469;-61
2023/11/15 04:38:29;;;;;;;;;;;;;;;25.26;44.67;94338.59;5035069;28;8229;-61
2023/11/15 04:40:56;;;;;;;;;;;;;;;25.30;44.85;94350.09;5032781;28;7244;-61
2023/11/15 04:43:26;;;;;;;;;;;;;;;25.28;44.71;94339.59;5026278;28;7181;-61
2023/11/15 04:46:18;;;;;;;;;;;;;;;25.27;44.79;94340.09;5033171;28;8896;-61
2023/11/15 04:49:00;;;;;;;;;;;;;;;25.26;44.69;94336.59;4975933;28;6907;-61
2023/11/15 04:51:27;;;;;;;;;;;;;;;25.27;44.51;94340.84;4975857;28;7214;-61
2023/11/15 04:54:15;;;;;;;;;;;;;;;25.26;44.02;94347.63;4993656;28;7888;-61
2023/11/15 04:56:54;;;;;;;;;;;;;;;25.26;44.88;94338.59;5000108;28;9003;-61
2023/11/15 04:59:39;;;;;;;;;;;;;;;25.27;43.90;94338.09;4977949;28;9238;-61
2023/11/15 05:02:06;;;;;;;;;;;;;;;25.25;44.64;94331.63;4999253;28;7230;-68
2023/11/15 05:04:46;;;;;;;;;;;;;;;25.26;43.92;94344.09;4988189;28;8920;-68
2023/11/15 05:07:24;;;;;;;;;;;;;;;25.25;44.75;94348.13;4989133;28;7012;-68
2023/11/15 05:09:50;;;;;;;;;;;;;;;25.25;44.44;94359.13;4984060;28;7247;-68
2023/11/15 05:12:16;;;;;;;;;;;;;;;25.26;45.00;94363.38;4976999;28;9131;-68
2023/11/15 05:14:43;;;;;;;;;;;;;;;25.24;44.62;94357.63;4979375;28;9071;-68
2023/11/15 05:17:09;;;;;;;;;;;;;;;25.22;44.18;94351.88;4976111;28;7212;-68
2023/11/15 05:19:44;;;;;;;;;;;;;;;25.23;44.13;94358.88;4997240;28;7224;-68
2023/11/15 05:22:47;;;;;;;;;;;;;;;25.26;44.64;94360.63;4993920;28;8227;-68
2023/11/15 05:25:32;;;;;;;;;;;;;;;25.32;44.26;94378.59;4938906;28;7341;-68
2023/11/15 05:28:24;;;;;;;;;;;;;;;25.30;44.57;94383.13;4969931;28;7220;-68
2023/11/15 05:31:09;;;;;;;;;;;;;;;25.27;44.63;94395.16;4948681;28;8236;-69
2023/11/15 05:34:01;;;;;;;;;;;;;;;25.31;44.03;94401.16;4978479;28;8938;-69
2023/11/15 05:36:40;;;;;;;;;;;;;;;25.39;44.38;94405.59;4972969;28;7288;-69
2023/11/15 05:39:37;;;;;;;;;;;;;;;25.42;43.87;94412.13;4975905;28;7212;-68
2023/11/15 05:42:05;;;;;;;;;;;;;;;25.43;43.35;94408.09;4971460;28;7177;-68
2023/11/15 05:44:40;;;;;;;;;;;;;;;25.45;43.71;94419.34;4972018;28;7271;-68
2023/11/15 05:47:09;;;;;;;;;;;;;;;25.47;43.48;94414.09;4961322;28;8783;-68
2023/11/15 05:53:43;;;;;;;;;;;;;;;25.46;42.86;94407.09;4928006;29;7216;-68
2023/11/15 05:56:09;;;;;;;;;;;;;;;25.40;44.05;94398.09;4926255;29;7918;-68
2023/11/15 05:58:35;;;;;;;;;;;;;;;25.44;43.50;94409.63;4916086;29;9075;-68
2023/11/15 06:01:03;;;;;;;;;;;;;;;25.48;43.80;94415.59;4942176;28;9660;-67
2023/11/15 06:03:29;;;;;;;;;;;;;;;25.48;42.95;94415.59;4933130;28;8773;-68
2023/11/15 06:05:55;;;;;;;;;;;;;;;25.47;43.07;94422.34;4945357;28;9196;-68
2023/11/15 06:08:24;;;;;;;;;;;;;;;25.49;42.74;94425.34;4933438;29;8760;-67
2023/11/15 06:10:51;;;;;;;;;;;;;;;25.49;43.33;94421.84;4934470;29;9027;-68
2023/11/15 06:13:19;;;;;;;;;;;;;;;25.46;43.27;94422.88;4939200;29;7224;-63
2023/11/15 06:15:45;;;;;;;;;;;;;;;25.48;42.57;94425.84;4944361;29;7513;-64
2023/11/15 06:18:16;;;;;;;;;;;;;;;25.49;42.69;94425.34;4947577;28;7046;-63
2023/11/15 06:20:52;;;;;;;;;;;;;;;25.51;43.20;94439.38;4948257;28;7335;-63
2023/11/15 06:23:43;;;;;;;;;;;;;;;25.51;43.15;94441.38;4967114;28;7193;-63
2023/11/15 06:26:20;;;;;;;;;;;;;;;25.51;43.06;94444.88;4947418;28;7912;-63
2023/11/15 06:28:49;;;;;;;;;;;;;;;25.54;42.58;94452.09;4975738;28;7040;-62
2023/11/15 06:31:18;;;;;;;;;;;;;;;25.51;42.59;94458.66;5034857;28;7218;-63
2023/11/15 06:33:51;;;;;;;;;;;;;;;25.51;42.67;94461.41;5025066;28;9204;-63
2023/11/15 06:36:19;;;;;;;;;;;;;;;25.48;43.60;94456.91;5042894;28;8569;-63
2023/11/15 06:38:50;;;;;;;;;;;;;;;25.49;42.54;94472.16;5029365;28;7276;-63
2023/11/15 06:41:23;;;;;;;;;;;;;;;25.49;42.88;94472.16;5036488;28;8263;-64
2023/11/15 06:44:04;;;;;;;;;;;;;;;25.49;43.32;94472.16;5032020;28;8807;-64
2023/11/15 06:47:24;;;;;;;;;;;;;;;25.47;43.53;94474.66;5044859;28;7083;-63
2023/11/15 06:49:53;;;;;;;;;;;;;;;25.42;43.54;94484.44;4965497;28;9080;-63
2023/11/15 06:52:27;;;;;;;;;;;;;;;25.43;43.92;94485.22;4966248;28;8238;-63
2023/11/15 06:55:31;;;;;;;;;;;;;;;25.44;43.34;94486.72;4976168;28;7026;-63
2023/11/15 06:58:36;;;;;;;;;;;;;;;25.46;43.55;94488.97;4944127;28;7407;-63
2023/11/15 07:01:16;;;;;;;;;;;;;;;25.49;43.19;94494.19;4928269;28;7311;-63
2023/11/15 07:04:07;;;;;;;;;;;;;;;25.49;43.16;94494.19;4940739;28;8753;-63
2023/11/15 07:06:38;;;;;;;;;;;;;;;25.49;43.54;94496.22;4919558;29;9049;-64
2023/11/15 07:09:04;;;;;;;;;;;;;;;25.49;43.67;94490.72;4939987;28;7395;-64
2023/11/15 07:11:31;;;;;;;;;;;;;;;25.50;43.18;94506.72;4920179;29;9175;-64
2023/11/15 07:13:58;;;;;;;;;;;;;;;25.53;43.81;94499.44;4945303;28;8534;-64
2023/11/15 07:16:33;;;;;;;;;;;;;;;25.51;43.25;94496.44;4942329;28;7226;-64
2023/11/15 07:18:59;;;;;;;;;;;;;;;25.51;43.50;94497.22;4944408;28;6978;-64
2023/11/15 07:21:34;;;;;;;;;;;;;;;25.52;43.25;94498.69;4945625;28;8852;-64
2023/11/15 07:24:03;;;;;;;;;;;;;;;25.49;43.34;94494.19;4920438;28;9106;-61
2023/11/15 07:26:35;;;;;;;;;;;;;;;25.51;43.59;94491.69;4974910;28;7115;-61
2023/11/15 07:29:14;;;;;;;;;;;;;;;25.50;43.39;94498.44;4992614;28;7518;-61
2023/11/15 07:31:53;;;;;;;;;;;;;;;25.49;43.15;94498.97;5005057;28;9188;-61
2023/11/15 07:34:23;;;;;;;;;;;;;;;25.51;42.71;94496.44;5037233;28;7824;-61
2023/11/15 07:37:04;;;;;;;;;;;;;;;25.50;43.30;94503.97;5055995;28;9073;-61
2023/11/15 07:39:50;;;;;;;;;;;;;;;25.54;43.28;94500.94;5044287;28;7349;-61
2023/11/15 07:42:19;;;;;;;;;;;;;;;25.55;43.34;94505.94;5044372;28;7343;-61
2023/11/15 07:45:02;;;;;;;;;;;;;;;25.56;43.07;94512.94;5040258;28;7033;-62
2023/11/15 07:47:29;;;;;;;;;;;;;;;25.58;42.70;94512.44;5021545;28;7232;-62
2023/11/15 07:50:05;;;;;;;;;;;;;;;25.57;42.98;94514.44;5039433;28;7290;-62
2023/11/15 07:52:33;;;;;;;;;;;;;;;25.57;43.63;94516.44;5051746;28;6995;-62
2023/11/15 07:55:02;;;;;;;;;;;;;;;25.61;42.94;94522.44;5030297;28;8837;-61
2023/11/15 07:57:39;;;;;;;;;;;;;;;25.61;42.66;94520.44;5033629;28;8811;-61
2023/11/15 08:00:09;;;;;;;;;;;;;;;25.60;42.72;94532.69;5027428;28;7193;-61
2023/11/15 08:02:42;;;;;;;;;;;;;;;25.60;42.53;94534.72;5050352;28;7406;-61
2023/11/15 08:05:40;;;;;;;;;;;;;;;25.57;43.28;94539.25;5036002;28;8825;-61
2023/11/15 08:08:14;;;;;;;;;;;;;;;25.70;42.56;94541.44;5033456;28;7104;-62
2023/11/15 08:10:53;;;;;;;;;;;;;;;25.78;42.23;94545.91;5041807;28;7170;-62
2023/11/15 08:13:36;;;;;;;;;;;;;;;25.77;42.68;94541.66;5040203;28;7855;-62
2023/11/15 08:16:03;;;;;;;;;;;;;;;25.76;43.06;94548.41;5026831;28;9331;-62
2023/11/15 08:18:57;;;;;;;;;;;;;;;25.78;42.42;94548.66;5040652;28;8849;-62
2023/11/15 08:21:23;;;;;;;;;;;;;;;25.83;42.25;94556.16;5051419;28;9004;-61
2023/11/15 08:24:34;;;;;;;;;;;;;;;25.83;42.65;94561.66;5026553;28;9075;-62
2023/11/15 08:27:03;;;;;;;;;;;;;;;25.79;42.34;94569.44;4965556;28;8777;-61
2023/11/15 08:29:51;;;;;;;;;;;;;;;25.74;42.31;94580.47;4967455;28;7252;-61
2023/11/15 08:32:29;;;;;;;;;;;;;;;25.70;42.25;94580.00;4969333;28;9046;-61
2023/11/15 08:34:56;;;;;;;;;;;;;;;25.71;43.10;94587.75;4984529;28;7609;-61
2023/11/15 08:37:24;;;;;;;;;;;;;;;25.71;43.15;94587.75;4987011;28;7503;-61
2023/11/15 08:39:50;;;;;;;;;;;;;;;25.72;42.96;94589.25;4986508;28;8448;-61
2023/11/15 08:42:16;;;;;;;;;;;;;;;25.68;43.05;94591.53;4967579;28;9184;-61
2023/11/15 08:44:43;;;;;;;;;;;;;;;25.67;43.14;94603.78;4972361;28;7797;-60
2023/11/15 08:47:10;;;;;;;;;;;;;;;25.68;42.55;94604.56;4985441;28;7946;-61
2023/11/15 08:49:38;;;;;;;;;;;;;;;25.68;42.78;94610.06;4985882;28;8755;-61
2023/11/15 08:52:53;;;;;;;;;;;;;;;25.69;42.56;94606.03;4990672;28;8685;-61
2023/11/15 08:55:40;;;;;;;;;;;;;;;25.66;42.38;94607.81;4988857;28;7899;-61
2023/11/15 08:58:40;;;;;;;;;;;;;;;25.67;43.22;94603.78;4970910;28;8977;-61
2023/11/15 09:01:47;;;;;;;;;;;;;;;25.67;43.15;94603.78;4931229;29;9136;-61
2023/11/15 09:04:15;;;;;;;;;;;;;;;25.65;42.89;94600.81;4948925;28;8838;-60
2023/11/15 09:06:46;;;;;;;;;;;;;;;25.65;43.20;94600.81;4956028;28;9397;-61
2023/11/15 09:09:14;;;;;;;;;;;;;;;25.67;42.95;94598.28;4969983;28;9079;-61
2023/11/15 09:11:44;;;;;;;;;;;;;;;25.64;43.18;94599.31;4961077;28;6891;-61
2023/11/15 09:14:15;;;;;;;;;;;;;;;25.66;43.04;94601.56;4975414;28;7285;-61
2023/11/15 09:16:50;;;;;;;;;;;;;;;25.65;42.33;94602.81;4967983;28;6994;-61
2023/11/15 09:19:20;;;;;;;;;;;;;;;25.62;43.16;94601.81;4953491;28;7040;-61
2023/11/15 09:21:56;;;;;;;;;;;;;;;25.65;42.66;94608.31;4968984;28;7303;-61
2023/11/15 09:24:33;;;;;;;;;;;;;;;25.66;42.67;94607.06;4966871;28;7749;-61
2023/11/15 09:27:29;;;;;;;;;;;;;;;25.65;42.74;94611.81;4944403;28;7252;-61
2023/11/15 09:29:55;;;;;;;;;;;;;;;25.67;42.73;94608.56;4950541;28;7365;-61
2023/11/15 09:32:30;;;;;;;;;;;;;;;25.67;42.80;94614.06;4972035;28;7388;-60
2023/11/15 09:34:57;;;;;;;;;;;;;;;25.69;42.79;94617.81;4951255;28;7689;-61
2023/11/15 09:37:25;;;;;;;;;;;;;;;25.68;42.59;94599.03;5025268;28;9198;-61
2023/11/15 09:40:19;;;;;;;;;;;;;;;25.71;43.02;94598.78;5037448;28;8857;-61
2023/11/15 09:43:05;;;;;;;;;;;;;;;25.71;43.09;94593.25;5023909;28;7245;-60
2023/11/15 09:45:43;;;;;;;;;;;;;;;25.71;42.55;94590.50;5023947;28;8652;-60
2023/11/15 09:48:15;;;;;;;;;;;;;;;25.74;43.49;94603.28;5033774;28;9112;-60
2023/11/15 09:51:20;;;;;;;;;;;;;;;25.74;42.62;94603.28;5030919;28;9090;-60
2023/11/15 09:54:22;;;;;;;;;;;;;;;25.76;43.21;94600.00;4984393;28;7175;-60
2023/11/15 09:57:06;;;;;;;;;;;;;;;25.74;43.64;94606.03;4914618;29;8543;-60
2023/11/15 10:00:09;;;;;;;;;;;;;;;25.76;43.73;94611.03;4913759;29;9124;-60
2023/11/15 10:03:07;;;;;;;;;;;;;;;25.76;43.05;94611.78;4826732;29;7071;-60
2023/11/15 10:06:03;;;;;;;;;;;;;;;25.76;43.42;94611.78;4821558;29;7234;-60
2023/11/15 10:09:09;;;;;;;;;;;;;;;25.74;43.55;94614.28;4814527;29;7129;-60
2023/11/15 10:11:55;;;;;;;;;;;;;;;25.75;43.75;94602.00;4815693;29;9221;-60
2023/11/15 10:17:46;;;;;;;;;;;;;;;25.77;44.19;94610.53;4832466;29;8863;-60
2023/11/15 10:21:01;;;;;;;;;;;;;;;25.78;43.51;94608.50;4825749;29;8858;-60
2023/11/15 10:23:28;;;;;;;;;;;;;;;25.78;43.58;94597.50;4802221;29;7274;-60
2023/11/15 10:26:13;;;;;;;;;;;;;;;25.80;43.46;94603.25;4825883;29;7267;-60
2023/11/15 10:28:51;;;;;;;;;;;;;;;25.77;43.53;94607.78;4835703;29;7314;-60
2023/11/15 10:31:29;;;;;;;;;;;;;;;25.74;44.27;94608.78;4906983;29;7575;-60
2023/11/15 10:34:02;;;;;;;;;;;;;;;25.73;43.43;94603.78;4929680;29;7478;-60
2023/11/15 10:36:30;;;;;;;;;;;;;;;25.72;43.29;94600.28;4928166;29;6982;-60
2023/11/15 10:39:09;;;;;;;;;;;;;;;25.68;44.10;94596.28;5021323;28;8788;-60
2023/11/15 10:41:50;;;;;;;;;;;;;;;25.70;44.31;94605.56;5035155;28;7264;-60
2023/11/15 10:45:07;;;;;;;;;;;;;;;25.65;44.84;94602.81;5038228;28;8826;-61
2023/11/15 10:48:01;;;;;;;;;;;;;;;25.58;44.82;94601.31;5044047;28;8752;-60
2023/11/15 10:50:46;;;;;;;;;;;;;;;25.56;44.88;94603.06;4998431;28;7247;-60
2023/11/15 10:53:27;;;;;;;;;;;;;;;25.55;44.01;94605.09;4973997;28;7210;-64
2023/11/15 10:56:06;;;;;;;;;;;;;;;25.55;44.16;94610.59;4976644;28;9495;-64
2023/11/15 11:02:11;;;;;;;;;;;;;;;25.64;44.39;94615.09;4992703;28;8088;-64
2023/11/15 11:04:59;;;;;;;;;;;;;;;25.65;43.80;94616.56;4979779;28;6860;-65
2023/11/15 11:08:08;;;;;;;;;;;;;;;25.68;44.20;94610.06;4993775;28;7237;-64
2023/11/15 11:11:05;;;;;;;;;;;;;;;25.69;43.65;94611.53;4952563;28;9150;-64
2023/11/15 11:14:18;;;;;;;;;;;;;;;25.67;44.29;94612.06;4952155;28;9078;-64
2023/11/15 11:16:46;;;;;;;;;;;;;;;25.69;43.19;94606.03;4884733;29;8795;-64
2023/11/15 11:19:25;;;;;;;;;;;;;;;25.67;43.69;94606.56;4864238;29;7212;-64
2023/11/15 11:22:05;;;;;;;;;;;;;;;25.70;43.13;94600.03;4866542;29;8781;-64
2023/11/15 11:25:10;;;;;;;;;;;;;;;25.72;43.26;94610.53;4878624;29;8823;-64
2023/11/15 11:27:56;;;;;;;;;;;;;;;25.69;43.31;94600.53;4913519;28;7578;-63
2023/11/15 11:30:38;;;;;;;;;;;;;;;25.71;43.51;94598.78;4936372;29;8804;-64
2023/11/15 11:33:19;;;;;;;;;;;;;;;25.73;43.32;94590.03;4937455;28;7167;-64
2023/11/15 11:36:41;;;;;;;;;;;;;;;25.73;43.78;94590.75;4935871;29;9085;-64
2023/11/15 11:39:12;;;;;;;;;;;;;;;25.74;43.97;94586.00;4926953;28;7106;-63
2023/11/15 11:41:50;;;;;;;;;;;;;;;25.76;43.49;94572.47;4936911;28;8856;-64
2023/11/15 11:44:50;;;;;;;;;;;;;;;25.77;43.76;94576.72;4939835;28;8793;-65
2023/11/15 11:47:25;;;;;;;;;;;;;;;25.76;43.96;94578.72;4911793;29;8066;-63
2023/11/15 11:50:07;;;;;;;;;;;;;;;25.78;44.20;94567.94;4910150;28;7002;-63
2023/11/15 11:52:44;;;;;;;;;;;;;;;25.83;43.24;94583.72;4964550;28;8785;-64
2023/11/15 11:55:33;;;;;;;;;;;;;;;25.85;43.27;94581.19;4971822;28;7426;-64
2023/11/15 11:58:03;;;;;;;;;;;;;;;25.88;43.97;94584.94;4957379;28;8814;-64
2023/11/15 12:00:31;;;;;;;;;;;;;;;25.88;43.80;94584.94;4973938;28;9371;-64
2023/11/15 12:03:23;;;;;;;;;;;;;;;25.88;43.20;94585.66;4968879;28;7140;-56
2023/11/15 12:06:12;;;;;;;;;;;;;;;25.83;44.11;94575.44;4957325;28;9682;-56
2023/11/15 12:08:52;;;;;;;;;;;;;;;25.85;43.92;94578.44;4949872;28;8787;-56
2023/11/15 12:11:22;;;;;;;;;;;;;;;25.86;43.95;94571.66;4954691;28;7427;-55
2023/11/15 12:13:51;;;;;;;;;;;;;;;25.88;43.33;94563.63;4975582;28;7468;-56
2023/11/15 12:16:17;;;;;;;;;;;;;;;25.87;44.10;94562.16;4955998;28;8839;-56
2023/11/15 12:19:14;;;;;;;;;;;;;;;25.87;43.92;94564.91;4962303;28;9164;-56
2023/11/15 12:21:44;;;;;;;;;;;;;;;25.86;44.05;94560.63;4944187;28;8810;-56
2023/11/15 12:24:23;;;;;;;;;;;;;;;25.86;43.65;94566.13;5038231;28;7297;-56
2023/11/15 12:26:49;;;;;;;;;;;;;;;25.85;43.43;94572.94;5022238;28;7155;-56
2023/11/15 12:29:19;;;;;;;;;;;;;;;25.85;43.83;94572.94;5050613;28;7333;-55
2023/11/15 12:31:50;;;;;;;;;;;;;;;25.84;43.59;94579.69;5053864;28;7237;-55
2023/11/15 12:34:17;;;;;;;;;;;;;;;25.88;43.50;94584.94;5036027;28;9518;-56
2023/11/15 12:36:46;;;;;;;;;;;;;;;25.84;43.67;94573.41;5044933;28;7169;-57
2023/11/15 12:39:16;;;;;;;;;;;;;;;25.83;43.11;94572.69;5022734;28;6905;-55
2023/11/15 12:41:48;;;;;;;;;;;;;;;25.82;43.96;94565.66;5032744;28;7128;-56
2023/11/15 12:44:45;;;;;;;;;;;;;;;25.79;44.01;94574.97;5035876;28;7220;-55
2023/11/15 12:48:02;;;;;;;;;;;;;;;25.79;43.02;94582.47;4990655;28;7016;-56
2023/11/15 12:50:38;;;;;;;;;;;;;;;25.80;43.47;94584.72;4950261;28;9072;-55
2023/11/15 12:53:21;;;;;;;;;;;;;;;25.79;43.42;94587.97;4965684;28;7275;-56
2023/11/15 12:55:49;;;;;;;;;;;;;;;25.79;43.21;94587.97;4966430;28;7138;-55
2023/11/15 12:58:51;;;;;;;;;;;;;;;25.80;43.90;94579.19;4950744;28;9149;-56
2023/11/15 13:01:32;;;;;;;;;;;;;;;25.82;43.68;94584.19;4905003;29;7276;-56
2023/11/15 13:03:58;;;;;;;;;;;;;;;25.78;43.20;94576.22;4906864;29;9838;-55
2023/11/15 13:06:26;;;;;;;;;;;;;;;25.84;43.52;94574.16;4892689;29;7279;-56
2023/11/15 13:08:55;;;;;;;;;;;;;;;25.86;43.03;94574.41;4880238;29;7180;-56
2023/11/15 13:11:26;;;;;;;;;;;;;;;25.84;43.35;94578.94;4893604;29;7660;-56
2023/11/15 13:13:55;;;;;;;;;;;;;;;25.85;43.70;94572.94;4890179;29;7085;-63
2023/11/15 13:16:23;;;;;;;;;;;;;;;25.86;43.18;94577.16;4893408;29;7258;-64
2023/11/15 13:18:52;;;;;;;;;;;;;;;25.88;42.98;94569.13;4878682;29;7001;-63
2023/11/15 13:21:24;;;;;;;;;;;;;;;25.83;43.73;94577.44;4879851;29;9117;-64
2023/11/15 13:24:18;;;;;;;;;;;;;;;25.83;43.37;94572.69;4884345;29;9192;-63
2023/11/15 13:26:55;;;;;;;;;;;;;;;25.80;43.20;94581.97;4909620;29;7033;-64
2023/11/15 13:29:36;;;;;;;;;;;;;;;25.81;42.95;94585.47;4941690;28;7187;-64
2023/11/15 13:32:35;;;;;;;;;;;;;;;25.81;43.23;94585.47;4928406;29;7093;-64
2023/11/15 13:35:08;;;;;;;;;;;;;;;25.78;43.25;94589.22;4812532;29;6999;-63
2023/11/15 13:37:35;;;;;;;;;;;;;;;25.77;43.29;94598.75;4928392;28;7421;-64
2023/11/15 13:40:05;;;;;;;;;;;;;;;25.74;43.55;94597.78;4949195;28;7743;-64
2023/11/15 13:42:33;;;;;;;;;;;;;;;25.77;43.09;94599.53;4945054;28;8709;-64
2023/11/15 13:45:01;;;;;;;;;;;;;;;25.79;43.31;94587.97;4935130;29;9411;-65
2023/11/15 13:47:29;;;;;;;;;;;;;;;25.82;43.17;94597.97;4954787;28;9228;-64
2023/11/15 13:49:59;;;;;;;;;;;;;;;25.82;43.08;94584.94;4947761;28;9552;-64
2023/11/15 13:52:31;;;;;;;;;;;;;;;25.84;43.62;94590.69;4942605;28;7260;-63
2023/11/15 13:54:58;;;;;;;;;;;;;;;25.83;43.68;94594.72;4943209;28;9386;-63
2023/11/15 13:57:33;;;;;;;;;;;;;;;25.82;43.56;94598.72;4957991;28;7551;-63
2023/11/15 14:00:07;;;;;;;;;;;;;;;25.83;42.77;94597.47;4963450;28;7642;-64
2023/11/15 14:02:46;;;;;;;;;;;;;;;25.81;42.77;94590.97;4943195;28;7392;-63
2023/11/15 14:05:44;;;;;;;;;;;;;;;25.81;43.59;94597.25;4947468;28;7231;-63
2023/11/15 14:08:19;;;;;;;;;;;;;;;25.81;43.26;94604.75;4953305;28;9285;-63
2023/11/15 14:10:49;;;;;;;;;;;;;;;25.81;43.03;94613.03;5011741;28;8287;-64